In Rescue
 
Open Full Screen Window  High Contrast Mode
Wind Gusting 00 knots
03
July 25, 2021 7:36 AM EDT
Weather Information
Wind Direction
  290 °
Wind Speed
  03 kt (3 mph)
Wind Gust
  00 kt (0 mph)
Altimeter
29.84 in
Visibility
10 SM
Temperature
17° C
63° F
Dewpoint
13° C
55° F
Humidity
77%
1hr Rain Fall
00.00 in.
24hr Rain Fall
00.50 in.
Sky Condition
Clear
VFR

METAR KISQ 251136Z AUTO 29003KT 10SM CLR 17/13 A2984 RMK AO2 T01690131

FAA Disclaimer: The data displayed is for advisory purposes only and is not to be used for flight planning or operations.